sensor_id;sensor_type;location;lat;lon;timestamp;temperature;humidity
37322;DHT22;23697;48.684;9.032;2022-08-05T00:00:52;22.80;66.70
37322;DHT22;23697;48.684;9.032;2022-08-05T00:03:19;22.70;66.50
37322;DHT22;23697;48.684;9.032;2022-08-05T00:05:47;22.80;66.50
37322;DHT22;23697;48.684;9.032;2022-08-05T00:08:19;22.70;66.70
37322;DHT22;23697;48.684;9.032;2022-08-05T00:10:46;22.70;66.50
37322;DHT22;23697;48.684;9.032;2022-08-05T00:13:13;22.70;66.50
37322;DHT22;23697;48.684;9.032;2022-08-05T00:15:43;22.70;66.90
37322;DHT22;23697;48.684;9.032;2022-08-05T00:18:10;22.60;67.30
37322;DHT22;23697;48.684;9.032;2022-08-05T00:20:38;22.60;67.50
37322;DHT22;23697;48.684;9.032;2022-08-05T00:23:08;22.60;67.80
37322;DHT22;23697;48.684;9.032;2022-08-05T00:25:35;22.50;67.70
37322;DHT22;23697;48.684;9.032;2022-08-05T00:28:03;22.50;68.50
37322;DHT22;23697;48.684;9.032;2022-08-05T00:30:30;22.40;68.50
37322;DHT22;23697;48.684;9.032;2022-08-05T00:32:57;22.30;68.40
37322;DHT22;23697;48.684;9.032;2022-08-05T00:35:24;22.40;68.40
37322;DHT22;23697;48.684;9.032;2022-08-05T00:37:51;22.50;68.50
37322;DHT22;23697;48.684;9.032;2022-08-05T00:40:23;22.40;68.20
37322;DHT22;23697;48.684;9.032;2022-08-05T00:42:57;22.40;68.30
37322;DHT22;23697;48.684;9.032;2022-08-05T00:48:15;22.30;68.50
37322;DHT22;23697;48.684;9.032;2022-08-05T00:50:50;22.20;68.70
37322;DHT22;23697;48.684;9.032;2022-08-05T00:53:24;22.20;68.50
37322;DHT22;23697;48.684;9.032;2022-08-05T00:55:59;22.20;68.10
37322;DHT22;23697;48.684;9.032;2022-08-05T00:58:27;22.20;68.20
37322;DHT22;23697;48.684;9.032;2022-08-05T01:01:03;22.20;67.50
37322;DHT22;23697;48.684;9.032;2022-08-05T01:03:30;22.20;66.20
37322;DHT22;23697;48.684;9.032;2022-08-05T01:06:02;22.10;64.00
37322;DHT22;23697;48.684;9.032;2022-08-05T01:08:35;22.10;61.30
37322;DHT22;23697;48.684;9.032;2022-08-05T01:11:11;22.20;61.20
37322;DHT22;23697;48.684;9.032;2022-08-05T01:13:54;22.40;61.00
37322;DHT22;23697;48.684;9.032;2022-08-05T01:16:32;22.40;61.80
37322;DHT22;23697;48.684;9.032;2022-08-05T01:19:10;22.40;61.20
37322;DHT22;23697;48.684;9.032;2022-08-05T01:22:16;22.40;60.80
37322;DHT22;23697;48.684;9.032;2022-08-05T01:28:16;22.40;60.60
37322;DHT22;23697;48.684;9.032;2022-08-05T01:30:47;22.50;60.40
37322;DHT22;23697;48.684;9.032;2022-08-05T01:33:25;22.60;59.70
37322;DHT22;23697;48.684;9.032;2022-08-05T01:35:57;22.60;60.10
37322;DHT22;23697;48.684;9.032;2022-08-05T01:38:31;22.60;60.30
37322;DHT22;23697;48.684;9.032;2022-08-05T01:41:07;22.70;59.40
37322;DHT22;23697;48.684;9.032;2022-08-05T01:43:36;23.00;58.70
37322;DHT22;23697;48.684;9.032;2022-08-05T01:46:05;23.10;58.70
37322;DHT22;23697;48.684;9.032;2022-08-05T01:48:34;23.10;58.90
37322;DHT22;23697;48.684;9.032;2022-08-05T01:51:02;23.30;58.10
37322;DHT22;23697;48.684;9.032;2022-08-05T01:53:31;23.50;57.50
37322;DHT22;23697;48.684;9.032;2022-08-05T01:56:00;23.70;57.40
37322;DHT22;23697;48.684;9.032;2022-08-05T01:58:28;23.70;57.30
37322;DHT22;23697;48.684;9.032;2022-08-05T02:00:58;23.70;57.50
37322;DHT22;23697;48.684;9.032;2022-08-05T02:03:31;23.60;57.70
37322;DHT22;23697;48.684;9.032;2022-08-05T02:05:59;23.60;57.90
37322;DHT22;23697;48.684;9.032;2022-08-05T02:08:27;23.60;58.30
37322;DHT22;23697;48.684;9.032;2022-08-05T02:10:59;23.60;58.10
37322;DHT22;23697;48.684;9.032;2022-08-05T02:13:33;23.50;58.60
37322;DHT22;23697;48.684;9.032;2022-08-05T02:16:11;23.50;58.50
37322;DHT22;23697;48.684;9.032;2022-08-05T02:18:43;23.50;59.00
37322;DHT22;23697;48.684;9.032;2022-08-05T02:21:13;23.50;59.00
37322;DHT22;23697;48.684;9.032;2022-08-05T02:23:43;23.40;59.40
37322;DHT22;23697;48.684;9.032;2022-08-05T02:26:12;23.40;59.70
37322;DHT22;23697;48.684;9.032;2022-08-05T02:28:42;23.30;60.00
37322;DHT22;23697;48.684;9.032;2022-08-05T02:31:15;23.10;60.50
37322;DHT22;23697;48.684;9.032;2022-08-05T02:33:46;23.20;60.50
37322;DHT22;23697;48.684;9.032;2022-08-05T02:36:16;23.30;60.30
37322;DHT22;23697;48.684;9.032;2022-08-05T02:38:44;23.20;60.50
37322;DHT22;23697;48.684;9.032;2022-08-05T02:41:12;23.30;60.50
37322;DHT22;23697;48.684;9.032;2022-08-05T02:43:40;23.20;60.80
37322;DHT22;23697;48.684;9.032;2022-08-05T02:46:08;23.20;60.70
37322;DHT22;23697;48.684;9.032;2022-08-05T02:48:38;23.20;61.00
37322;DHT22;23697;48.684;9.032;2022-08-05T02:51:05;23.10;61.60
37322;DHT22;23697;48.684;9.032;2022-08-05T02:53:34;23.10;62.00
37322;DHT22;23697;48.684;9.032;2022-08-05T02:56:03;23.00;62.60
37322;DHT22;23697;48.684;9.032;2022-08-05T02:58:31;22.90;62.50
37322;DHT22;23697;48.684;9.032;2022-08-05T03:01:00;22.80;63.10
37322;DHT22;23697;48.684;9.032;2022-08-05T03:03:28;22.80;63.20
37322;DHT22;23697;48.684;9.032;2022-08-05T03:05:58;22.70;63.40
37322;DHT22;23697;48.684;9.032;2022-08-05T03:08:25;22.60;63.80
37322;DHT22;23697;48.684;9.032;2022-08-05T03:10:52;22.60;64.10
37322;DHT22;23697;48.684;9.032;2022-08-05T03:13:19;22.60;64.40
37322;DHT22;23697;48.684;9.032;2022-08-05T03:15:47;22.60;64.50
37322;DHT22;23697;48.684;9.032;2022-08-05T03:18:14;22.60;64.60
37322;DHT22;23697;48.684;9.032;2022-08-05T03:20:41;22.50;64.80
37322;DHT22;23697;48.684;9.032;2022-08-05T03:23:09;22.60;64.40
37322;DHT22;23697;48.684;9.032;2022-08-05T03:25:37;22.50;64.60
37322;DHT22;23697;48.684;9.032;2022-08-05T03:28:05;22.50;64.60
37322;DHT22;23697;48.684;9.032;2022-08-05T03:30:32;22.50;64.80
37322;DHT22;23697;48.684;9.032;2022-08-05T03:33:00;22.40;65.20
37322;DHT22;23697;48.684;9.032;2022-08-05T03:35:27;22.40;65.70
37322;DHT22;23697;48.684;9.032;2022-08-05T03:37:55;22.20;66.20
37322;DHT22;23697;48.684;9.032;2022-08-05T03:40:25;22.10;66.70
37322;DHT22;23697;48.684;9.032;2022-08-05T03:42:52;22.10;66.60
37322;DHT22;23697;48.684;9.032;2022-08-05T03:45:19;22.00;66.70
37322;DHT22;23697;48.684;9.032;2022-08-05T03:47:46;22.00;67.30
37322;DHT22;23697;48.684;9.032;2022-08-05T03:50:13;21.90;67.50
37322;DHT22;23697;48.684;9.032;2022-08-05T03:52:44;21.80;68.00
37322;DHT22;23697;48.684;9.032;2022-08-05T03:55:16;21.60;68.30
37322;DHT22;23697;48.684;9.032;2022-08-05T03:57:45;21.60;68.30
37322;DHT22;23697;48.684;9.032;2022-08-05T04:00:14;21.60;68.20
37322;DHT22;23697;48.684;9.032;2022-08-05T04:02:43;21.60;68.50
37322;DHT22;23697;48.684;9.032;2022-08-05T04:05:12;21.60;69.10
37322;DHT22;23697;48.684;9.032;2022-08-05T04:07:41;21.50;69.20
37322;DHT22;23697;48.684;9.032;2022-08-05T04:10:08;21.50;69.40
37322;DHT22;23697;48.684;9.032;2022-08-05T04:12:35;21.50;69.70
37322;DHT22;23697;48.684;9.032;2022-08-05T04:15:04;21.50;69.80
37322;DHT22;23697;48.684;9.032;2022-08-05T04:17:32;21.40;69.60
37322;DHT22;23697;48.684;9.032;2022-08-05T04:20:00;21.30;70.20
37322;DHT22;23697;48.684;9.032;2022-08-05T04:22:28;21.30;70.30
37322;DHT22;23697;48.684;9.032;2022-08-05T04:24:55;21.20;70.50
37322;DHT22;23697;48.684;9.032;2022-08-05T04:27:21;21.20;70.40
37322;DHT22;23697;48.684;9.032;2022-08-05T04:29:48;21.20;70.70
37322;DHT22;23697;48.684;9.032;2022-08-05T04:32:17;21.20;70.20
37322;DHT22;23697;48.684;9.032;2022-08-05T04:34:43;21.20;70.50
37322;DHT22;23697;48.684;9.032;2022-08-05T04:37:10;21.20;70.00
37322;DHT22;23697;48.684;9.032;2022-08-05T04:39:37;21.20;70.30
37322;DHT22;23697;48.684;9.032;2022-08-05T04:42:04;21.20;69.90
37322;DHT22;23697;48.684;9.032;2022-08-05T04:44:31;21.20;70.40
37322;DHT22;23697;48.684;9.032;2022-08-05T04:47:00;21.20;70.40
37322;DHT22;23697;48.684;9.032;2022-08-05T04:49:32;21.10;70.50
37322;DHT22;23697;48.684;9.032;2022-08-05T04:51:59;21.20;70.80
37322;DHT22;23697;48.684;9.032;2022-08-05T04:54:25;21.10;70.60
37322;DHT22;23697;48.684;9.032;2022-08-05T04:56:52;21.10;70.90
37322;DHT22;23697;48.684;9.032;2022-08-05T04:59:19;21.10;70.00
37322;DHT22;23697;48.684;9.032;2022-08-05T05:01:48;21.10;69.70
37322;DHT22;23697;48.684;9.032;2022-08-05T05:04:15;21.20;68.60
37322;DHT22;23697;48.684;9.032;2022-08-05T05:06:43;21.20;68.50
37322;DHT22;23697;48.684;9.032;2022-08-05T05:09:10;21.20;68.20
37322;DHT22;23697;48.684;9.032;2022-08-05T05:11:37;21.40;67.80
37322;DHT22;23697;48.684;9.032;2022-08-05T05:14:04;21.40;68.40
37322;DHT22;23697;48.684;9.032;2022-08-05T05:16:31;21.50;67.90
37322;DHT22;23697;48.684;9.032;2022-08-05T05:18:58;21.60;67.80
37322;DHT22;23697;48.684;9.032;2022-08-05T05:21:25;21.70;67.80
37322;DHT22;23697;48.684;9.032;2022-08-05T05:23:53;21.90;67.40
37322;DHT22;23697;48.684;9.032;2022-08-05T05:26:20;21.90;67.60
37322;DHT22;23697;48.684;9.032;2022-08-05T05:28:47;22.00;67.60
37322;DHT22;23697;48.684;9.032;2022-08-05T05:31:14;22.10;67.20
37322;DHT22;23697;48.684;9.032;2022-08-05T05:33:41;22.10;67.70
37322;DHT22;23697;48.684;9.032;2022-08-05T05:36:08;22.10;67.70
37322;DHT22;23697;48.684;9.032;2022-08-05T05:38:35;22.20;67.60
37322;DHT22;23697;48.684;9.032;2022-08-05T05:41:03;22.20;67.50
37322;DHT22;23697;48.684;9.032;2022-08-05T05:43:30;22.30;67.50
37322;DHT22;23697;48.684;9.032;2022-08-05T05:45:57;22.30;67.50
37322;DHT22;23697;48.684;9.032;2022-08-05T05:48:24;22.50;67.20
37322;DHT22;23697;48.684;9.032;2022-08-05T05:50:51;22.60;67.60
37322;DHT22;23697;48.684;9.032;2022-08-05T05:53:18;22.70;66.90
37322;DHT22;23697;48.684;9.032;2022-08-05T05:55:45;22.80;66.90
37322;DHT22;23697;48.684;9.032;2022-08-05T05:58:13;23.00;66.00
37322;DHT22;23697;48.684;9.032;2022-08-05T06:00:40;23.10;65.80
37322;DHT22;23697;48.684;9.032;2022-08-05T06:03:07;23.10;66.20
37322;DHT22;23697;48.684;9.032;2022-08-05T06:05:34;23.30;65.50
37322;DHT22;23697;48.684;9.032;2022-08-05T06:08:01;23.40;65.40
37322;DHT22;23697;48.684;9.032;2022-08-05T06:10:28;23.50;65.40
37322;DHT22;23697;48.684;9.032;2022-08-05T06:12:55;23.50;65.50
37322;DHT22;23697;48.684;9.032;2022-08-05T06:15:23;23.60;65.70
37322;DHT22;23697;48.684;9.032;2022-08-05T06:17:50;23.60;66.20
37322;DHT22;23697;48.684;9.032;2022-08-05T06:20:17;23.60;65.60
37322;DHT22;23697;48.684;9.032;2022-08-05T06:22:44;23.50;65.20
37322;DHT22;23697;48.684;9.032;2022-08-05T06:25:11;23.50;65.30
37322;DHT22;23697;48.684;9.032;2022-08-05T06:27:38;23.50;65.70
37322;DHT22;23697;48.684;9.032;2022-08-05T06:30:07;23.60;65.50
37322;DHT22;23697;48.684;9.032;2022-08-05T06:32:36;23.60;65.30
37322;DHT22;23697;48.684;9.032;2022-08-05T06:35:03;23.80;65.10
37322;DHT22;23697;48.684;9.032;2022-08-05T06:37:30;23.90;64.30
37322;DHT22;23697;48.684;9.032;2022-08-05T06:39:57;24.00;63.00
37322;DHT22;23697;48.684;9.032;2022-08-05T06:42:24;24.10;63.70
37322;DHT22;23697;48.684;9.032;2022-08-05T06:44:51;24.20;61.60
37322;DHT22;23697;48.684;9.032;2022-08-05T06:47:18;24.30;62.30
37322;DHT22;23697;48.684;9.032;2022-08-05T06:49:46;24.50;61.70
37322;DHT22;23697;48.684;9.032;2022-08-05T06:52:13;24.60;61.40
37322;DHT22;23697;48.684;9.032;2022-08-05T06:54:40;24.70;60.40
37322;DHT22;23697;48.684;9.032;2022-08-05T06:57:07;24.70;60.50
37322;DHT22;23697;48.684;9.032;2022-08-05T06:59:33;24.80;60.70
37322;DHT22;23697;48.684;9.032;2022-08-05T07:02:00;24.90;58.70
37322;DHT22;23697;48.684;9.032;2022-08-05T07:04:27;25.00;58.50
37322;DHT22;23697;48.684;9.032;2022-08-05T07:06:55;25.20;57.60
37322;DHT22;23697;48.684;9.032;2022-08-05T07:09:22;25.30;56.20
37322;DHT22;23697;48.684;9.032;2022-08-05T07:11:49;25.40;54.90
37322;DHT22;23697;48.684;9.032;2022-08-05T07:14:16;25.50;55.60
37322;DHT22;23697;48.684;9.032;2022-08-05T07:17:03;25.60;54.60
37322;DHT22;23697;48.684;9.032;2022-08-05T07:19:30;25.80;54.20
37322;DHT22;23697;48.684;9.032;2022-08-05T07:21:58;25.80;53.60
37322;DHT22;23697;48.684;9.032;2022-08-05T07:24:25;26.00;53.60
37322;DHT22;23697;48.684;9.032;2022-08-05T07:26:52;26.10;53.70
37322;DHT22;23697;48.684;9.032;2022-08-05T07:29:19;26.20;53.50
37322;DHT22;23697;48.684;9.032;2022-08-05T07:31:46;26.30;51.80
37322;DHT22;23697;48.684;9.032;2022-08-05T07:34:13;26.30;51.40
37322;DHT22;23697;48.684;9.032;2022-08-05T07:36:40;26.30;49.70
37322;DHT22;23697;48.684;9.032;2022-08-05T07:39:08;26.30;49.90
37322;DHT22;23697;48.684;9.032;2022-08-05T07:41:35;26.40;48.00
37322;DHT22;23697;48.684;9.032;2022-08-05T07:44:03;26.60;50.10
37322;DHT22;23697;48.684;9.032;2022-08-05T07:46:31;26.70;49.40
37322;DHT22;23697;48.684;9.032;2022-08-05T07:48:59;26.70;45.90
37322;DHT22;23697;48.684;9.032;2022-08-05T07:51:26;26.70;45.80
37322;DHT22;23697;48.684;9.032;2022-08-05T07:53:53;26.80;47.10
37322;DHT22;23697;48.684;9.032;2022-08-05T07:56:21;27.00;46.00
37322;DHT22;23697;48.684;9.032;2022-08-05T07:58:48;27.10;45.20
37322;DHT22;23697;48.684;9.032;2022-08-05T08:01:15;27.20;46.60
37322;DHT22;23697;48.684;9.032;2022-08-05T08:03:43;27.20;45.40
37322;DHT22;23697;48.684;9.032;2022-08-05T08:06:10;27.30;44.80
37322;DHT22;23697;48.684;9.032;2022-08-05T08:08:37;27.40;45.70
37322;DHT22;23697;48.684;9.032;2022-08-05T08:11:04;27.50;45.60
37322;DHT22;23697;48.684;9.032;2022-08-05T08:13:32;27.70;46.70
37322;DHT22;23697;48.684;9.032;2022-08-05T08:15:59;27.60;44.60
37322;DHT22;23697;48.684;9.032;2022-08-05T08:18:26;27.50;44.60
37322;DHT22;23697;48.684;9.032;2022-08-05T08:20:53;27.50;44.90
37322;DHT22;23697;48.684;9.032;2022-08-05T08:23:19;27.40;45.30
37322;DHT22;23697;48.684;9.032;2022-08-05T08:25:46;27.60;45.80
37322;DHT22;23697;48.684;9.032;2022-08-05T08:28:13;27.70;44.60
37322;DHT22;23697;48.684;9.032;2022-08-05T08:30:41;27.80;45.60
37322;DHT22;23697;48.684;9.032;2022-08-05T08:33:09;28.10;44.60
37322;DHT22;23697;48.684;9.032;2022-08-05T08:35:36;28.40;44.40
37322;DHT22;23697;48.684;9.032;2022-08-05T08:38:04;28.60;44.20
37322;DHT22;23697;48.684;9.032;2022-08-05T08:40:32;28.70;44.20
37322;DHT22;23697;48.684;9.032;2022-08-05T08:43:00;29.00;42.50
37322;DHT22;23697;48.684;9.032;2022-08-05T08:45:29;28.90;42.90
37322;DHT22;23697;48.684;9.032;2022-08-05T08:47:58;28.90;41.80
37322;DHT22;23697;48.684;9.032;2022-08-05T08:50:29;28.70;41.70
37322;DHT22;23697;48.684;9.032;2022-08-05T08:53:02;28.60;43.10
37322;DHT22;23697;48.684;9.032;2022-08-05T08:55:30;28.70;42.50
37322;DHT22;23697;48.684;9.032;2022-08-05T08:57:58;28.70;43.00
37322;DHT22;23697;48.684;9.032;2022-08-05T09:00:25;28.70;43.00
37322;DHT22;23697;48.684;9.032;2022-08-05T09:02:52;29.10;41.00
37322;DHT22;23697;48.684;9.032;2022-08-05T09:05:21;29.10;41.00
37322;DHT22;23697;48.684;9.032;2022-08-05T09:07:49;28.90;41.50
37322;DHT22;23697;48.684;9.032;2022-08-05T09:10:16;28.50;41.80
37322;DHT22;23697;48.684;9.032;2022-08-05T09:12:43;28.30;41.50
37322;DHT22;23697;48.684;9.032;2022-08-05T09:15:10;28.30;44.00
37322;DHT22;23697;48.684;9.032;2022-08-05T09:17:39;28.80;42.70
37322;DHT22;23697;48.684;9.032;2022-08-05T09:20:07;29.10;42.10
37322;DHT22;23697;48.684;9.032;2022-08-05T09:23:04;29.60;40.80
37322;DHT22;23697;48.684;9.032;2022-08-05T09:25:33;29.70;41.30
37322;DHT22;23697;48.684;9.032;2022-08-05T09:28:12;30.10;41.20
37322;DHT22;23697;48.684;9.032;2022-08-05T09:30:50;30.10;40.00
37322;DHT22;23697;48.684;9.032;2022-08-05T09:33:18;30.30;39.10
37322;DHT22;23697;48.684;9.032;2022-08-05T09:35:56;30.30;39.30
37322;DHT22;23697;48.684;9.032;2022-08-05T09:38:25;30.60;39.90
37322;DHT22;23697;48.684;9.032;2022-08-05T09:41:33;30.80;38.20
37322;DHT22;23697;48.684;9.032;2022-08-05T09:44:01;31.00;36.90
37322;DHT22;23697;48.684;9.032;2022-08-05T09:46:29;31.10;37.40
37322;DHT22;23697;48.684;9.032;2022-08-05T09:48:57;31.20;35.40
37322;DHT22;23697;48.684;9.032;2022-08-05T09:51:35;31.10;35.20
37322;DHT22;23697;48.684;9.032;2022-08-05T09:57:34;31.10;34.60
37322;DHT22;23697;48.684;9.032;2022-08-05T10:00:05;31.10;34.70
37322;DHT22;23697;48.684;9.032;2022-08-05T10:02:34;30.90;35.80
37322;DHT22;23697;48.684;9.032;2022-08-05T10:05:06;31.10;36.90
37322;DHT22;23697;48.684;9.032;2022-08-05T10:07:46;31.60;37.50
37322;DHT22;23697;48.684;9.032;2022-08-05T10:10:14;31.60;34.80
37322;DHT22;23697;48.684;9.032;2022-08-05T10:12:47;31.60;35.10
37322;DHT22;23697;48.684;9.032;2022-08-05T10:15:17;31.80;35.00
37322;DHT22;23697;48.684;9.032;2022-08-05T10:18:08;31.60;34.60
37322;DHT22;23697;48.684;9.032;2022-08-05T10:20:38;31.60;35.40
37322;DHT22;23697;48.684;9.032;2022-08-05T10:23:05;31.80;35.50
37322;DHT22;23697;48.684;9.032;2022-08-05T10:25:32;31.80;33.90
37322;DHT22;23697;48.684;9.032;2022-08-05T10:28:01;31.60;33.90
37322;DHT22;23697;48.684;9.032;2022-08-05T10:30:28;31.40;34.50
37322;DHT22;23697;48.684;9.032;2022-08-05T10:32:57;31.40;35.00
37322;DHT22;23697;48.684;9.032;2022-08-05T10:35:24;31.50;34.20
37322;DHT22;23697;48.684;9.032;2022-08-05T10:37:52;31.60;35.80
37322;DHT22;23697;48.684;9.032;2022-08-05T10:40:25;31.90;35.40
37322;DHT22;23697;48.684;9.032;2022-08-05T10:42:57;32.00;33.80
37322;DHT22;23697;48.684;9.032;2022-08-05T10:45:28;32.00;34.20
37322;DHT22;23697;48.684;9.032;2022-08-05T10:47:55;32.20;35.80
37322;DHT22;23697;48.684;9.032;2022-08-05T10:50:23;32.50;34.10
37322;DHT22;23697;48.684;9.032;2022-08-05T10:52:51;32.60;32.90
37322;DHT22;23697;48.684;9.032;2022-08-05T10:55:22;32.50;32.70
37322;DHT22;23697;48.684;9.032;2022-08-05T10:58:07;32.50;34.30
37322;DHT22;23697;48.684;9.032;2022-08-05T11:00:36;32.60;34.30
37322;DHT22;23697;48.684;9.032;2022-08-05T11:03:11;32.60;34.90
37322;DHT22;23697;48.684;9.032;2022-08-05T11:05:39;32.80;34.40
37322;DHT22;23697;48.684;9.032;2022-08-05T11:08:07;32.80;33.70
37322;DHT22;23697;48.684;9.032;2022-08-05T11:10:35;32.70;33.80
37322;DHT22;23697;48.684;9.032;2022-08-05T11:13:03;33.00;34.10
37322;DHT22;23697;48.684;9.032;2022-08-05T11:15:32;33.20;33.60
37322;DHT22;23697;48.684;9.032;2022-08-05T11:18:22;33.50;33.60
37322;DHT22;23697;48.684;9.032;2022-08-05T11:20:50;33.60;32.10
37322;DHT22;23697;48.684;9.032;2022-08-05T11:23:41;33.70;32.40
37322;DHT22;23697;48.684;9.032;2022-08-05T11:26:10;33.80;31.70
37322;DHT22;23697;48.684;9.032;2022-08-05T11:28:47;33.80;31.70
37322;DHT22;23697;48.684;9.032;2022-08-05T11:31:25;33.90;31.60
37322;DHT22;23697;48.684;9.032;2022-08-05T11:34:06;33.90;30.30
37322;DHT22;23697;48.684;9.032;2022-08-05T11:36:47;33.70;32.30
37322;DHT22;23697;48.684;9.032;2022-08-05T11:41:59;33.40;31.10
37322;DHT22;23697;48.684;9.032;2022-08-05T11:44:35;33.40;31.20
37322;DHT22;23697;48.684;9.032;2022-08-05T11:47:02;33.50;31.70
37322;DHT22;23697;48.684;9.032;2022-08-05T11:49:31;33.70;31.90
37322;DHT22;23697;48.684;9.032;2022-08-05T11:51:58;33.90;32.20
37322;DHT22;23697;48.684;9.032;2022-08-05T11:54:26;34.10;31.20
37322;DHT22;23697;48.684;9.032;2022-08-05T11:56:55;34.10;30.50
37322;DHT22;23697;48.684;9.032;2022-08-05T11:59:23;33.70;31.10
37322;DHT22;23697;48.684;9.032;2022-08-05T12:01:55;33.60;32.30
37322;DHT22;23697;48.684;9.032;2022-08-05T12:04:23;33.60;32.80
37322;DHT22;23697;48.684;9.032;2022-08-05T12:06:52;33.80;33.60
37322;DHT22;23697;48.684;9.032;2022-08-05T12:09:22;34.00;32.90
37322;DHT22;23697;48.684;9.032;2022-08-05T12:11:50;34.10;32.20
37322;DHT22;23697;48.684;9.032;2022-08-05T12:14:17;34.20;32.20
37322;DHT22;23697;48.684;9.032;2022-08-05T12:16:45;34.40;32.30
37322;DHT22;23697;48.684;9.032;2022-08-05T12:19:13;34.50;31.70
37322;DHT22;23697;48.684;9.032;2022-08-05T12:21:45;34.60;29.90
37322;DHT22;23697;48.684;9.032;2022-08-05T12:24:16;34.80;31.10
37322;DHT22;23697;48.684;9.032;2022-08-05T12:26:44;35.00;31.50
37322;DHT22;23697;48.684;9.032;2022-08-05T12:29:13;35.10;31.10
37322;DHT22;23697;48.684;9.032;2022-08-05T12:31:46;35.10;31.60
37322;DHT22;23697;48.684;9.032;2022-08-05T12:34:14;35.10;31.30
37322;DHT22;23697;48.684;9.032;2022-08-05T12:36:42;35.10;31.80
37322;DHT22;23697;48.684;9.032;2022-08-05T12:39:10;35.30;31.40
37322;DHT22;23697;48.684;9.032;2022-08-05T12:41:40;35.10;31.40
37322;DHT22;23697;48.684;9.032;2022-08-05T12:44:08;35.00;30.30
37322;DHT22;23697;48.684;9.032;2022-08-05T12:46:38;34.90;31.80
37322;DHT22;23697;48.684;9.032;2022-08-05T12:49:07;34.90;32.40
37322;DHT22;23697;48.684;9.032;2022-08-05T12:51:46;35.10;31.10
37322;DHT22;23697;48.684;9.032;2022-08-05T12:54:24;35.00;31.70
37322;DHT22;23697;48.684;9.032;2022-08-05T12:56:54;35.00;31.50
37322;DHT22;23697;48.684;9.032;2022-08-05T12:59:23;34.80;31.20
37322;DHT22;23697;48.684;9.032;2022-08-05T13:01:55;34.80;31.30
37322;DHT22;23697;48.684;9.032;2022-08-05T13:04:26;34.90;31.90
37322;DHT22;23697;48.684;9.032;2022-08-05T13:06:55;35.10;30.80
37322;DHT22;23697;48.684;9.032;2022-08-05T13:09:23;35.10;32.00
37322;DHT22;23697;48.684;9.032;2022-08-05T13:11:50;35.10;31.50
37322;DHT22;23697;48.684;9.032;2022-08-05T13:14:20;35.00;30.40
37322;DHT22;23697;48.684;9.032;2022-08-05T13:16:52;35.00;31.60
37322;DHT22;23697;48.684;9.032;2022-08-05T13:19:21;35.10;30.30
37322;DHT22;23697;48.684;9.032;2022-08-05T13:21:49;35.30;31.20
37322;DHT22;23697;48.684;9.032;2022-08-05T13:24:17;35.60;30.00
37322;DHT22;23697;48.684;9.032;2022-08-05T13:26:45;35.60;31.40
37322;DHT22;23697;48.684;9.032;2022-08-05T13:29:13;35.10;30.20
37322;DHT22;23697;48.684;9.032;2022-08-05T13:31:42;34.90;31.60
37322;DHT22;23697;48.684;9.032;2022-08-05T13:34:09;34.60;31.30
37322;DHT22;23697;48.684;9.032;2022-08-05T13:36:36;34.40;31.50
37322;DHT22;23697;48.684;9.032;2022-08-05T13:39:05;34.40;32.30
37322;DHT22;23697;48.684;9.032;2022-08-05T13:41:32;34.10;31.30
37322;DHT22;23697;48.684;9.032;2022-08-05T13:43:59;33.70;31.70
37322;DHT22;23697;48.684;9.032;2022-08-05T13:46:26;33.50;32.10
37322;DHT22;23697;48.684;9.032;2022-08-05T13:48:54;33.80;33.60
37322;DHT22;23697;48.684;9.032;2022-08-05T13:51:30;34.00;31.70
37322;DHT22;23697;48.684;9.032;2022-08-05T13:53:57;34.00;33.30
37322;DHT22;23697;48.684;9.032;2022-08-05T13:56:24;34.00;33.00
37322;DHT22;23697;48.684;9.032;2022-08-05T13:58:51;33.80;32.20
37322;DHT22;23697;48.684;9.032;2022-08-05T14:01:18;33.60;32.90
37322;DHT22;23697;48.684;9.032;2022-08-05T14:03:45;33.20;33.70
37322;DHT22;23697;48.684;9.032;2022-08-05T14:06:35;32.90;33.30
37322;DHT22;23697;48.684;9.032;2022-08-05T14:09:01;32.50;34.20
37322;DHT22;23697;48.684;9.032;2022-08-05T14:11:28;32.10;34.70
37322;DHT22;23697;48.684;9.032;2022-08-05T14:13:55;31.70;35.80
37322;DHT22;23697;48.684;9.032;2022-08-05T14:16:23;31.50;35.90
37322;DHT22;23697;48.684;9.032;2022-08-05T14:18:49;31.30;36.50
37322;DHT22;23697;48.684;9.032;2022-08-05T14:21:16;31.10;36.70
37322;DHT22;23697;48.684;9.032;2022-08-05T14:23:45;30.90;37.10
37322;DHT22;23697;48.684;9.032;2022-08-05T14:26:12;30.70;37.80
37322;DHT22;23697;48.684;9.032;2022-08-05T14:28:38;30.60;37.80
37322;DHT22;23697;48.684;9.032;2022-08-05T14:31:07;30.30;38.30
37322;DHT22;23697;48.684;9.032;2022-08-05T14:33:34;30.30;38.30
37322;DHT22;23697;48.684;9.032;2022-08-05T14:36:02;30.20;38.70
37322;DHT22;23697;48.684;9.032;2022-08-05T14:38:29;30.10;39.20
37322;DHT22;23697;48.684;9.032;2022-08-05T14:40:57;30.10;39.20
37322;DHT22;23697;48.684;9.032;2022-08-05T14:43:24;29.90;39.80
37322;DHT22;23697;48.684;9.032;2022-08-05T14:45:51;29.80;39.90
37322;DHT22;23697;48.684;9.032;2022-08-05T14:48:18;29.60;40.80
37322;DHT22;23697;48.684;9.032;2022-08-05T14:50:45;29.60;40.40
37322;DHT22;23697;48.684;9.032;2022-08-05T14:53:12;29.40;41.70
37322;DHT22;23697;48.684;9.032;2022-08-05T14:55:38;29.30;41.20
37322;DHT22;23697;48.684;9.032;2022-08-05T14:58:08;29.30;42.10
37322;DHT22;23697;48.684;9.032;2022-08-05T15:00:35;29.30;50.70
37322;DHT22;23697;48.684;9.032;2022-08-05T15:03:03;28.90;59.90
37322;DHT22;23697;48.684;9.032;2022-08-05T15:05:30;27.60;55.60
37322;DHT22;23697;48.684;9.032;2022-08-05T15:07:57;26.70;64.40
37322;DHT22;23697;48.684;9.032;2022-08-05T15:10:26;26.50;69.10
37322;DHT22;23697;48.684;9.032;2022-08-05T15:12:53;26.20;68.30
37322;DHT22;23697;48.684;9.032;2022-08-05T15:15:22;25.90;69.50
37322;DHT22;23697;48.684;9.032;2022-08-05T15:17:49;25.70;72.10
37322;DHT22;23697;48.684;9.032;2022-08-05T15:20:18;25.30;70.30
37322;DHT22;23697;48.684;9.032;2022-08-05T15:22:47;24.90;72.00
37322;DHT22;23697;48.684;9.032;2022-08-05T15:25:14;24.60;73.10
37322;DHT22;23697;48.684;9.032;2022-08-05T15:27:40;24.70;76.00
37322;DHT22;23697;48.684;9.032;2022-08-05T15:30:09;24.70;75.20
37322;DHT22;23697;48.684;9.032;2022-08-05T15:32:37;24.60;74.30
37322;DHT22;23697;48.684;9.032;2022-08-05T15:35:05;24.80;76.20
37322;DHT22;23697;48.684;9.032;2022-08-05T15:37:32;24.90;72.30
37322;DHT22;23697;48.684;9.032;2022-08-05T15:39:59;25.00;72.30
37322;DHT22;23697;48.684;9.032;2022-08-05T15:42:26;25.30;76.60
37322;DHT22;23697;48.684;9.032;2022-08-05T15:44:53;25.60;75.20
37322;DHT22;23697;48.684;9.032;2022-08-05T15:47:20;25.70;71.30
37322;DHT22;23697;48.684;9.032;2022-08-05T15:49:49;25.90;71.10
37322;DHT22;23697;48.684;9.032;2022-08-05T15:52:16;26.00;71.60
37322;DHT22;23697;48.684;9.032;2022-08-05T15:54:43;26.10;71.40